Time;durP1;ratioP1;P1;durP2;ratioP2;P2;SDS_P1;SDS_P2;PMS_P1;PMS_P2;Temp;Humidity;BMP_temperature;BMP_pressure;BME280_temperature;BME280_humidity;BME280_pressure;Samples;Min_cycle;Max_cycle;Signal;HPM_P1;HPM_P2
2022/02/18 00:00:00;;;;;;;14.50;4.88;;;14.40;65.40;;;;;;6161844;28;20049;-72
2022/02/18 00:03:01;;;;;;;8.30;4.32;;;14.40;65.40;;;;;;6147070;28;20058;-72
2022/02/18 00:06:02;;;;;;;10.40;4.60;;;14.40;65.40;;;;;;6158032;28;20042;-73
2022/02/18 00:09:03;;;;;;;11.30;4.80;;;14.40;65.40;;;;;;6156916;28;20073;-73
2022/02/18 00:12:05;;;;;;;13.30;5.47;;;14.40;65.30;;;;;;6158200;28;20056;-73
2022/02/18 00:15:06;;;;;;;8.73;4.50;;;14.40;65.30;;;;;;6198697;28;20061;-73
2022/02/18 00:18:07;;;;;;;9.00;4.85;;;14.40;65.30;;;;;;6208410;28;20058;-73
2022/02/18 00:21:08;;;;;;;10.10;4.47;;;14.40;65.30;;;;;;6209570;28;20040;-73
2022/02/18 00:24:09;;;;;;;11.27;4.43;;;14.30;65.20;;;;;;6211185;28;20459;-73
2022/02/18 00:27:10;;;;;;;10.13;4.75;;;14.30;65.30;;;;;;6217851;28;20095;-72
2022/02/18 00:30:15;;;;;;;32.78;8.27;;;14.30;65.40;;;;;;6210403;28;20482;-73
2022/02/18 00:33:51;;;;;;;13.38;4.70;;;14.30;65.50;;;;;;6205163;28;20042;-73
2022/02/18 00:36:54;;;;;;;14.80;4.80;;;14.20;65.60;;;;;;6207554;28;20048;-73
2022/02/18 00:39:59;;;;;;;11.45;4.75;;;14.10;65.70;;;;;;6222085;28;20132;-73
2022/02/18 00:43:01;;;;;;;10.30;4.43;;;14.10;65.80;;;;;;6196858;28;20454;-73
2022/02/18 00:46:02;;;;;;;17.40;4.72;;;14.10;66.00;;;;;;6221029;28;20029;-72
2022/02/18 00:49:03;;;;;;;8.80;4.03;;;14.10;66.00;;;;;;6220546;28;20108;-74
2022/02/18 00:52:05;;;;;;;10.90;4.53;;;14.00;66.00;;;;;;6183148;28;20033;-73
2022/02/18 00:55:06;;;;;;;9.05;4.10;;;14.00;65.90;;;;;;6211366;28;20034;-73
2022/02/18 00:58:09;;;;;;;13.07;4.25;;;14.00;65.90;;;;;;6202625;28;20042;-73
2022/02/18 01:01:10;;;;;;;9.15;3.72;;;14.00;65.80;;;;;;6211180;28;20490;-73
2022/02/18 01:04:11;;;;;;;16.65;5.05;;;14.00;65.80;;;;;;6209528;28;20493;-73
2022/02/18 01:07:12;;;;;;;6.85;3.45;;;14.00;65.70;;;;;;6202501;28;20037;-73
2022/02/18 01:10:13;;;;;;;6.80;3.55;;;14.00;65.50;;;;;;6201991;28;20432;-73
2022/02/18 01:13:46;;;;;;;9.55;4.38;;;14.00;65.40;;;;;;6206548;28;20049;-73
2022/02/18 01:16:48;;;;;;;10.15;4.40;;;13.90;65.40;;;;;;6206672;28;20034;-73
2022/02/18 01:19:49;;;;;;;6.78;3.38;;;13.90;65.50;;;;;;6191105;28;20126;-73
2022/02/18 01:22:50;;;;;;;4.47;2.50;;;13.90;65.60;;;;;;6210675;28;20037;-73
2022/02/18 01:25:51;;;;;;;12.25;3.10;;;13.80;65.60;;;;;;6207655;28;20081;-73
2022/02/18 01:28:52;;;;;;;8.48;3.75;;;13.80;65.50;;;;;;6203608;28;20378;-74
2022/02/18 01:31:53;;;;;;;9.68;3.53;;;13.80;65.30;;;;;;6209327;28;20041;-73
2022/02/18 01:34:54;;;;;;;11.23;3.70;;;13.70;65.30;;;;;;6208507;28;20038;-73
2022/02/18 01:37:55;;;;;;;9.20;3.67;;;13.70;65.40;;;;;;6210705;28;20173;-74
2022/02/18 01:40:57;;;;;;;11.02;3.63;;;13.70;65.50;;;;;;6209215;28;20414;-74
2022/02/18 01:44:00;;;;;;;8.10;3.92;;;13.60;65.40;;;;;;6225173;28;20056;-74
2022/02/18 01:47:02;;;;;;;9.43;3.72;;;13.60;65.30;;;;;;6204708;28;20405;-74
2022/02/18 01:50:05;;;;;;;6.45;3.60;;;13.60;65.20;;;;;;6212460;28;20030;-73
2022/02/18 01:53:38;;;;;;;9.90;4.45;;;13.60;65.20;;;;;;6187785;28;20435;-73
2022/02/18 01:56:39;;;;;;;7.70;3.58;;;13.60;65.30;;;;;;6208262;28;20061;-73
2022/02/18 01:59:41;;;;;;;10.43;3.53;;;13.60;65.30;;;;;;6201225;28;20117;-73
2022/02/18 02:02:43;;;;;;;10.40;4.05;;;13.50;65.40;;;;;;6219484;28;20035;-73
2022/02/18 02:05:45;;;;;;;8.82;3.42;;;13.50;65.50;;;;;;6197394;28;20043;-74
2022/02/18 02:08:46;;;;;;;11.77;3.58;;;13.50;65.50;;;;;;6215840;28;20037;-74
2022/02/18 02:11:48;;;;;;;12.35;3.95;;;13.40;65.60;;;;;;6214994;28;20042;-73
2022/02/18 02:14:49;;;;;;;10.75;3.83;;;13.40;65.80;;;;;;6204177;28;20104;-74
2022/02/18 02:17:53;;;;;;;9.63;4.13;;;13.30;65.90;;;;;;6213680;28;20049;-74
2022/02/18 02:20:54;;;;;;;9.73;3.83;;;13.30;66.00;;;;;;6195157;28;20113;-73
2022/02/18 02:23:56;;;;;;;7.72;4.03;;;13.20;66.10;;;;;;6197429;28;20034;-74
2022/02/18 02:27:03;;;;;;;7.72;3.83;;;13.20;66.30;;;;;;6196050;28;20149;-73
2022/02/18 02:30:06;;;;;;;8.82;3.45;;;13.10;66.40;;;;;;6213518;28;20119;-74
2022/02/18 02:33:29;;;;;;;11.25;3.63;;;13.10;66.50;;;;;;6211786;28;20049;-74
2022/02/18 02:36:32;;;;;;;10.77;4.15;;;13.00;66.70;;;;;;6217493;28;20041;-74
2022/02/18 02:39:33;;;;;;;7.88;3.97;;;13.00;66.80;;;;;;6219868;28;20121;-74
2022/02/18 02:42:35;;;;;;;13.30;4.28;;;12.90;66.80;;;;;;6216634;28;20474;-75
2022/02/18 02:45:43;;;;;;;9.63;3.72;;;12.90;66.90;;;;;;6203026;28;20335;-74
2022/02/18 02:48:44;;;;;;;7.00;3.65;;;12.90;66.90;;;;;;6211409;28;20029;-74
2022/02/18 02:51:58;;;;;;;14.23;4.57;;;13.00;66.90;;;;;;6201221;28;20104;-74
2022/02/18 02:55:00;;;;;;;9.45;4.28;;;12.90;66.80;;;;;;6201860;28;20100;-74
2022/02/18 02:58:01;;;;;;;10.60;4.03;;;12.90;66.80;;;;;;6224395;28;20041;-74
2022/02/18 03:01:02;;;;;;;8.60;3.97;;;12.90;66.80;;;;;;6207879;28;20042;-74
2022/02/18 03:04:10;;;;;;;9.05;3.90;;;12.90;66.90;;;;;;6216504;28;20034;-72
2022/02/18 03:07:11;;;;;;;6.13;3.50;;;12.90;66.80;;;;;;6206248;28;20113;-73
2022/02/18 03:10:13;;;;;;;10.48;4.13;;;12.90;66.90;;;;;;6214855;28;20061;-74
2022/02/18 03:13:30;;;;;;;12.85;3.80;;;12.90;66.90;;;;;;6210052;28;20882;-73
2022/02/18 03:16:31;;;;;;;7.57;3.47;;;12.80;66.90;;;;;;6206573;28;20471;-74
2022/02/18 03:19:32;;;;;;;6.55;3.67;;;12.80;66.90;;;;;;6205814;28;20042;-73
2022/02/18 03:22:36;;;;;;;10.25;3.83;;;12.80;67.00;;;;;;6207779;28;20035;-73
2022/02/18 03:25:37;;;;;;;7.22;3.80;;;12.70;67.00;;;;;;6212260;28;20521;-74
2022/02/18 03:28:39;;;;;;;6.03;3.75;;;12.70;67.10;;;;;;6214229;28;20064;-73
2022/02/18 03:31:56;;;;;;;7.97;3.90;;;12.70;67.10;;;;;;6213641;28;20042;-73
2022/02/18 03:34:57;;;;;;;10.05;4.03;;;12.60;67.10;;;;;;6210975;28;20462;-73
2022/02/18 03:38:07;;;;;;;9.98;3.78;;;12.60;67.10;;;;;;6201840;28;20052;-73
2022/02/18 03:41:14;;;;;;;8.80;3.38;;;12.50;67.30;;;;;;6211254;28;20049;-74
2022/02/18 03:44:15;;;;;;;9.52;3.80;;;12.50;67.30;;;;;;6210459;28;20070;-73
2022/02/18 03:47:36;;;;;;;8.05;3.80;;;12.50;67.40;;;;;;6211897;28;20027;-73
2022/02/18 03:50:42;;;;;;;8.68;3.92;;;12.50;67.40;;;;;;6210373;28;20077;-73
2022/02/18 03:53:45;;;;;;;9.10;3.60;;;12.40;67.40;;;;;;6210026;28;20042;-74
2022/02/18 03:56:55;;;;;;;7.30;4.15;;;12.40;67.50;;;;;;6192446;28;20459;-75
2022/02/18 03:59:59;;;;;;;5.53;3.60;;;12.40;67.50;;;;;;6218408;28;20125;-74
2022/02/18 04:02:59;;;;;;;12.35;3.78;;;12.30;67.50;;;;;;6212818;28;20038;-72
2022/02/18 04:06:19;;;;;;;11.63;4.18;;;12.30;67.50;;;;;;6209495;28;20467;-73
2022/02/18 04:09:26;;;;;;;11.80;3.75;;;12.30;67.60;;;;;;6209593;28;20061;-74
2022/02/18 04:13:13;;;;;;;8.73;3.35;;;12.20;67.60;;;;;;6210190;28;20041;-73
2022/02/18 04:16:15;;;;;;;6.32;3.60;;;12.20;67.70;;;;;;6188799;28;20502;-73
2022/02/18 04:19:16;;;;;;;7.65;3.75;;;12.10;67.70;;;;;;6207738;28;20037;-73
2022/02/18 04:22:23;;;;;;;8.75;3.95;;;12.10;67.80;;;;;;6212028;28;20038;-74
2022/02/18 04:25:28;;;;;;;8.38;4.53;;;12.10;67.90;;;;;;6215054;28;20038;-73
2022/02/18 04:28:29;;;;;;;6.95;3.35;;;12.10;67.80;;;;;;6205960;28;20053;-73
2022/02/18 04:31:30;;;;;;;9.48;3.28;;;12.10;67.80;;;;;;6188536;28;20370;-74
2022/02/18 04:34:31;;;;;;;9.70;3.67;;;12.10;67.80;;;;;;6208342;28;20069;-74
2022/02/18 04:37:32;;;;;;;5.95;2.80;;;12.00;67.70;;;;;;6226345;28;20371;-74
2022/02/18 04:40:33;;;;;;;6.63;3.65;;;12.00;67.60;;;;;;6210804;28;20034;-73
2022/02/18 04:43:34;;;;;;;10.57;3.92;;;12.00;67.40;;;;;;6205172;28;20432;-73
2022/02/18 04:46:35;;;;;;;10.45;3.95;;;12.00;67.50;;;;;;6193509;28;20034;-73
2022/02/18 04:49:36;;;;;;;7.82;3.45;;;11.90;67.40;;;;;;6210685;28;20525;-73
2022/02/18 04:53:08;;;;;;;7.18;3.67;;;11.90;67.50;;;;;;6212850;28;20033;-73
2022/02/18 04:56:09;;;;;;;7.45;3.70;;;11.90;67.40;;;;;;6198519;28;20463;-73
2022/02/18 04:59:12;;;;;;;6.15;3.50;;;11.90;67.50;;;;;;6196100;28;20037;-73
2022/02/18 05:02:14;;;;;;;13.63;3.90;;;11.80;67.50;;;;;;6206333;28;20069;-74
2022/02/18 05:05:15;;;;;;;7.30;3.35;;;11.80;67.60;;;;;;6205467;28;20412;-74
2022/02/18 05:08:16;;;;;;;9.85;3.78;;;11.80;68.40;;;;;;6212214;28;20096;-75
2022/02/18 05:11:17;;;;;;;9.30;3.70;;;11.90;67.60;;;;;;6207307;28;20042;-73
2022/02/18 05:14:18;;;;;;;7.22;3.90;;;11.80;67.50;;;;;;6205928;28;20478;-74
2022/02/18 05:17:19;;;;;;;10.07;4.03;;;11.90;67.50;;;;;;6201984;28;20047;-73
2022/02/18 05:20:20;;;;;;;10.95;3.78;;;11.80;67.40;;;;;;6208326;28;20047;-74
2022/02/18 05:23:21;;;;;;;11.05;3.30;;;11.90;67.50;;;;;;6208091;28;20041;-73
2022/02/18 05:26:21;;;;;;;6.03;2.85;;;11.90;67.50;;;;;;6205926;28;20057;-73
2022/02/18 05:29:23;;;;;;;7.20;3.08;;;11.90;67.40;;;;;;6205800;28;20034;-73
2022/02/18 05:32:57;;;;;;;6.85;3.55;;;11.90;67.20;;;;;;6221238;28;20065;-73
2022/02/18 05:35:58;;;;;;;8.18;3.60;;;11.90;67.20;;;;;;6189372;28;20138;-73
2022/02/18 05:39:00;;;;;;;8.02;4.15;;;11.90;67.10;;;;;;6202379;28;20121;-73
2022/02/18 05:42:01;;;;;;;9.80;3.45;;;11.90;66.90;;;;;;6205119;28;20095;-72
2022/02/18 05:45:02;;;;;;;7.55;3.53;;;11.90;66.80;;;;;;6210489;28;20026;-73
2022/02/18 05:48:04;;;;;;;10.25;3.35;;;11.80;66.90;;;;;;6208690;28;20378;-73
2022/02/18 05:51:05;;;;;;;6.60;3.47;;;11.80;67.00;;;;;;6209594;28;20034;-73
2022/02/18 05:54:09;;;;;;;8.73;3.88;;;11.80;67.10;;;;;;6211622;28;20143;-75
2022/02/18 05:57:10;;;;;;;8.90;3.17;;;11.70;67.10;;;;;;6215731;28;20451;-74
2022/02/18 06:00:11;;;;;;;5.10;3.25;;;11.70;67.10;;;;;;6228894;28;20026;-73
2022/02/18 06:03:15;;;;;;;8.57;3.53;;;11.70;67.10;;;;;;6201504;28;20038;-73
2022/02/18 06:06:16;;;;;;;6.75;2.85;;;11.60;67.20;;;;;;6207177;28;20045;-73
2022/02/18 06:09:18;;;;;;;6.72;3.13;;;11.60;67.30;;;;;;6203717;28;20081;-73
2022/02/18 06:12:49;;;;;;;8.88;3.33;;;11.60;67.30;;;;;;6194397;28;20447;-73
2022/02/18 06:15:50;;;;;;;9.15;3.47;;;11.60;67.50;;;;;;6212850;28;20078;-73
2022/02/18 06:18:51;;;;;;;9.88;3.90;;;11.50;67.40;;;;;;6212937;28;20040;-75
2022/02/18 06:21:52;;;;;;;10.88;4.50;;;11.50;67.50;;;;;;6209099;28;20451;-74
2022/02/18 06:24:53;;;;;;;11.93;6.22;;;11.60;68.10;;;;;;6206668;28;20042;-75
2022/02/18 06:28:07;;;;;;;12.02;5.82;;;11.50;67.50;;;;;;6213099;28;20041;-74
2022/02/18 06:31:08;;;;;;;12.65;6.15;;;11.50;67.50;;;;;;6203974;28;20034;-74
2022/02/18 06:34:09;;;;;;;11.57;5.28;;;11.50;67.40;;;;;;6222178;28;20043;-73
2022/02/18 06:37:10;;;;;;;11.55;4.70;;;11.50;67.30;;;;;;6196377;28;20539;-73
2022/02/18 06:40:12;;;;;;;11.50;4.63;;;11.50;67.20;;;;;;6188539;28;20034;-74
2022/02/18 06:43:13;;;;;;;7.78;4.30;;;11.50;67.20;;;;;;6219426;28;20591;-73
2022/02/18 06:46:14;;;;;;;8.02;4.57;;;11.50;67.20;;;;;;6205779;28;20081;-74
2022/02/18 06:49:15;;;;;;;8.65;4.50;;;11.40;67.10;;;;;;6195636;28;20038;-76
2022/02/18 06:52:42;;;;;;;20.50;4.93;;;11.40;67.10;;;;;;6203211;28;20367;-76
2022/02/18 06:55:44;;;;;;;9.57;4.45;;;11.40;67.10;;;;;;6191016;28;20037;-74
2022/02/18 06:58:45;;;;;;;7.93;3.85;;;11.50;67.10;;;;;;6205008;28;20053;-74
2022/02/18 07:01:50;;;;;;;8.32;3.90;;;11.50;67.00;;;;;;6203583;28;20521;-75
2022/02/18 07:04:52;;;;;;;6.65;3.78;;;11.50;66.90;;;;;;6206967;28;20033;-75
2022/02/18 07:07:53;;;;;;;14.75;4.15;;;11.50;66.90;;;;;;6206565;28;20046;-75
2022/02/18 07:10:57;;;;;;;8.77;3.67;;;11.50;66.80;;;;;;6204523;28;20128;-73
2022/02/18 07:13:58;;;;;;;7.07;3.72;;;11.50;66.80;;;;;;6215419;28;20153;-74
2022/02/18 07:17:00;;;;;;;6.05;2.90;;;11.60;66.80;;;;;;6204511;28;20350;-74
2022/02/18 07:20:02;;;;;;;6.70;3.42;;;11.60;66.80;;;;;;6205050;28;20030;-72
2022/02/18 07:23:07;;;;;;;11.10;3.90;;;11.70;66.80;;;;;;6206027;28;20053;-73
2022/02/18 07:26:10;;;;;;;6.20;3.63;;;11.70;66.60;;;;;;6224292;28;20117;-73
2022/02/18 07:29:11;;;;;;;12.25;4.53;;;11.70;66.60;;;;;;6210097;28;20534;-72
2022/02/18 07:32:34;;;;;;;8.90;3.22;;;11.70;66.50;;;;;;6208613;28;20045;-72
2022/02/18 07:35:35;;;;;;;7.40;2.78;;;11.70;66.60;;;;;;6202946;28;20072;-72
2022/02/18 07:38:36;;;;;;;5.93;3.40;;;11.70;66.20;;;;;;6208085;28;20030;-72
2022/02/18 07:41:39;;;;;;;7.97;3.10;;;11.80;66.00;;;;;;6212626;28;20117;-73
2022/02/18 07:44:40;;;;;;;8.23;3.45;;;11.80;65.80;;;;;;6210930;28;20048;-72
2022/02/18 07:47:41;;;;;;;6.82;3.22;;;11.80;65.60;;;;;;6212176;28;20031;-72
2022/02/18 07:50:42;;;;;;;9.82;2.72;;;11.90;65.50;;;;;;6195728;28;20126;-72
2022/02/18 07:53:43;;;;;;;8.15;3.70;;;11.90;65.30;;;;;;6212526;28;21518;-73
2022/02/18 07:56:44;;;;;;;10.05;3.40;;;11.90;65.10;;;;;;6203779;28;20123;-74
2022/02/18 07:59:47;;;;;;;11.25;4.00;;;12.00;65.00;;;;;;6201044;28;20034;-75
2022/02/18 08:02:49;;;;;;;8.25;3.53;;;12.00;64.70;;;;;;6212285;28;20455;-74
2022/02/18 08:05:51;;;;;;;9.63;3.95;;;12.10;64.60;;;;;;6210798;28;20034;-74
2022/02/18 08:08:53;;;;;;;6.45;3.85;;;12.10;64.40;;;;;;6217322;28;20030;-74
2022/02/18 08:12:29;;;;;;;11.65;4.22;;;12.10;64.40;;;;;;6204882;28;20053;-74
2022/02/18 08:15:30;;;;;;;10.13;4.90;;;12.10;64.40;;;;;;6220208;28;20466;-74
2022/02/18 08:18:30;;;;;;;18.08;5.40;;;12.20;64.40;;;;;;6203825;28;20041;-74
2022/02/18 08:21:32;;;;;;;9.38;4.90;;;12.20;64.40;;;;;;6204374;28;20092;-74
2022/02/18 08:24:33;;;;;;;10.85;3.88;;;12.30;65.20;;;;;;6204369;28;20040;-75
2022/02/18 08:27:34;;;;;;;12.25;4.57;;;12.40;64.20;;;;;;6206554;28;20392;-74
2022/02/18 08:30:34;;;;;;;15.50;4.82;;;12.40;64.20;;;;;;6203638;28;20549;-76
2022/02/18 08:33:35;;;;;;;12.07;5.32;;;12.50;64.00;;;;;;6207533;28;20048;-74
2022/02/18 08:36:36;;;;;;;11.13;4.93;;;12.60;63.90;;;;;;6201388;28;20123;-74
2022/02/18 08:39:37;;;;;;;13.32;6.35;;;12.70;63.70;;;;;;6201052;28;20046;-74
2022/02/18 08:42:40;;;;;;;15.27;6.47;;;12.90;63.60;;;;;;6208203;28;20083;-75
2022/02/18 08:45:43;;;;;;;17.38;8.20;;;13.00;63.40;;;;;;6202808;28;20042;-74
2022/02/18 08:48:44;;;;;;;14.85;8.23;;;13.20;63.10;;;;;;6208625;28;20383;-75
2022/02/18 08:52:19;;;;;;;14.73;7.85;;;13.40;62.90;;;;;;6203277;28;20045;-76
2022/02/18 08:55:22;;;;;;;24.45;8.48;;;13.60;62.50;;;;;;6201405;28;20482;-75
2022/02/18 08:58:23;;;;;;;16.55;7.53;;;13.70;61.80;;;;;;6203709;28;20046;-75
2022/02/18 09:01:27;;;;;;;13.73;7.70;;;13.70;61.30;;;;;;6206455;28;20038;-74
2022/02/18 09:04:28;;;;;;;11.48;5.53;;;13.70;61.10;;;;;;6207136;28;20335;-75
2022/02/18 09:07:30;;;;;;;12.55;5.80;;;13.80;61.00;;;;;;6209571;28;20451;-75
2022/02/18 09:10:31;;;;;;;14.90;6.53;;;13.80;60.70;;;;;;6208812;28;20118;-75
2022/02/18 09:13:32;;;;;;;11.15;6.43;;;13.80;60.60;;;;;;6210415;28;20046;-72
2022/02/18 09:16:33;;;;;;;20.88;7.13;;;13.80;60.80;;;;;;6208946;28;20687;-74
2022/02/18 09:19:34;;;;;;;15.77;6.78;;;13.80;60.90;;;;;;6204425;28;20062;-76
2022/02/18 09:22:37;;;;;;;11.35;5.13;;;13.90;61.00;;;;;;6210183;28;20049;-74
2022/02/18 09:25:40;;;;;;;6.82;3.78;;;14.00;60.70;;;;;;6210735;28;20038;-72
2022/02/18 09:28:40;;;;;;;7.80;3.40;;;14.00;60.30;;;;;;6204193;28;20050;-73
2022/02/18 09:32:19;;;;;;;10.98;4.07;;;13.90;60.00;;;;;;6204077;28;20394;-73
2022/02/18 09:35:20;;;;;;;6.40;3.97;;;13.80;60.20;;;;;;6201832;28;20047;-74
2022/02/18 09:38:22;;;;;;;9.93;3.58;;;13.80;60.30;;;;;;6205710;28;20050;-73
2022/02/18 09:41:23;;;;;;;12.55;4.07;;;13.80;60.20;;;;;;6202890;28;20049;-73
2022/02/18 09:44:25;;;;;;;14.60;4.75;;;14.00;60.10;;;;;;6208753;28;20523;-74
2022/02/18 09:47:27;;;;;;;12.75;3.50;;;14.00;59.80;;;;;;6202539;28;20034;-74
2022/02/18 09:50:30;;;;;;;10.05;4.07;;;14.10;59.30;;;;;;6203567;28;20033;-72
2022/02/18 09:53:34;;;;;;;20.20;6.43;;;14.10;59.00;;;;;;6208795;28;20042;-74
2022/02/18 09:56:39;;;;;;;10.27;3.58;;;14.10;59.10;;;;;;6194245;28;20065;-74
2022/02/18 09:59:40;;;;;;;11.00;3.58;;;14.30;59.00;;;;;;6218220;28;20344;-75
2022/02/18 10:02:41;;;;;;;21.98;7.53;;;14.40;58.60;;;;;;6208041;28;20038;-75
2022/02/18 10:05:42;;;;;;;19.70;6.82;;;14.50;58.40;;;;;;6191586;28;20030;-75
2022/02/18 10:08:50;;;;;;;8.93;4.15;;;14.60;58.30;;;;;;6206934;28;20084;-74
2022/02/18 10:12:11;;;;;;;21.00;8.20;;;14.70;58.00;;;;;;6209448;28;20048;-75
2022/02/18 10:15:12;;;;;;;25.95;9.40;;;14.70;57.60;;;;;;6216552;28;20069;-75
2022/02/18 10:18:15;;;;;;;10.32;4.18;;;14.80;57.70;;;;;;6209843;28;20045;-75
2022/02/18 10:21:22;;;;;;;10.65;3.60;;;14.90;57.80;;;;;;6186597;28;20054;-76
2022/02/18 10:24:23;;;;;;;19.53;4.70;;;15.10;57.80;;;;;;6222171;28;20115;-75
2022/02/18 10:27:43;;;;;;;19.98;8.40;;;15.30;57.50;;;;;;6208695;28;20030;-74
2022/02/18 10:30:45;;;;;;;34.95;10.30;;;15.60;57.20;;;;;;6205812;28;20144;-75
2022/02/18 10:34:06;;;;;;;38.50;18.80;;;15.90;56.30;;;;;;6214131;28;20047;-75
2022/02/18 10:37:07;;;;;;;28.73;10.02;;;16.00;55.70;;;;;;6197250;28;20052;-76
2022/02/18 10:40:16;;;;;;;12.63;3.63;;;16.10;55.10;;;;;;6190966;28;21310;-77
2022/02/18 10:43:18;;;;;;;13.23;6.10;;;16.20;54.90;;;;;;6225913;28;20125;-74
2022/02/18 10:46:19;;;;;;;19.33;7.75;;;16.20;54.70;;;;;;6210964;28;20085;-75
2022/02/18 10:49:22;;;;;;;14.02;4.80;;;16.30;54.80;;;;;;6223767;28;20037;-75
2022/02/18 10:52:25;;;;;;;33.83;11.65;;;16.40;54.30;;;;;;6196358;28;20046;-75
2022/02/18 10:55:28;;;;;;;19.45;6.80;;;16.50;53.90;;;;;;6197073;28;20176;-76
2022/02/18 10:58:31;;;;;;;10.15;4.30;;;16.70;54.00;;;;;;6208969;28;20097;-74
2022/02/18 11:01:32;;;;;;;11.50;5.28;;;17.00;53.60;;;;;;6210588;28;20042;-76
2022/02/18 11:04:33;;;;;;;30.13;10.40;;;17.20;53.30;;;;;;6213414;28;20056;-74
2022/02/18 11:07:38;;;;;;;25.40;11.07;;;17.30;52.90;;;;;;6211523;28;20136;-73
2022/02/18 11:10:46;;;;;;;20.80;8.35;;;17.60;52.20;;;;;;6207825;28;20471;-74
2022/02/18 11:13:49;;;;;;;46.92;12.05;;;17.90;52.00;;;;;;6210372;28;20061;-76
2022/02/18 11:16:52;;;;;;;28.08;8.77;;;18.30;51.40;;;;;;6223955;28;20059;-75
2022/02/18 11:19:55;;;;;;;14.60;7.57;;;18.60;50.60;;;;;;6224104;28;20033;-75
2022/02/18 11:22:57;;;;;;;19.30;8.98;;;18.80;50.00;;;;;;6222286;28;20045;-77
2022/02/18 11:25:59;;;;;;;18.05;6.00;;;19.00;49.90;;;;;;6223556;28;20029;-75
2022/02/18 11:33:41;;;;;;;;;;;19.60;48.60;;;;;;6203325;28;20050;-75
2022/02/18 11:37:09;;;;;;;7.80;3.43;;;20.20;46.60;;;;;;6195555;28;20418;-75
2022/02/18 11:40:34;;;;;;;15.02;5.97;;;20.40;45.60;;;;;;6199313;28;20347;-74
2022/02/18 11:43:45;;;;;;;41.90;14.00;;;20.40;45.70;;;;;;6222456;28;20089;-75
2022/02/18 11:47:15;;;;;;;18.85;8.55;;;20.70;45.40;;;;;;6200741;28;20467;-74
2022/02/18 11:50:18;;;;;;;35.60;12.63;;;21.30;44.50;;;;;;6217290;28;20037;-75
2022/02/18 11:53:59;;;;;;;13.48;5.88;;;22.00;42.80;;;;;;6222377;28;20467;-74
2022/02/18 11:57:02;;;;;;;7.47;3.10;;;22.50;41.80;;;;;;6148025;29;20613;-76
2022/02/18 12:00:07;;;;;;;9.27;3.17;;;22.70;41.20;;;;;;6131102;29;20110;-74
2022/02/18 12:03:16;;;;;;;9.60;3.22;;;23.00;40.50;;;;;;6125909;29;20042;-74
2022/02/18 12:06:22;;;;;;;11.65;4.53;;;23.40;40.00;;;;;;6145211;29;20070;-74
2022/02/18 12:09:47;;;;;;;17.02;4.13;;;23.90;38.40;;;;;;6138625;29;20054;-75
2022/02/18 12:12:49;;;;;;;5.50;3.05;;;24.60;37.80;;;;;;6125505;29;20456;-75
2022/02/18 12:15:57;;;;;;;5.82;2.65;;;25.30;36.70;;;;;;6130534;29;20038;-76
2022/02/18 12:19:09;;;;;;;7.57;3.33;;;25.90;35.70;;;;;;6141431;29;20043;-75
2022/02/18 12:22:10;;;;;;;13.10;3.10;;;26.50;34.70;;;;;;6146091;28;20484;-76
2022/02/18 12:25:28;;;;;;;6.63;2.50;;;26.90;33.20;;;;;;6146552;29;20039;-75
2022/02/18 12:28:29;;;;;;;10.63;3.50;;;26.90;32.90;;;;;;6191695;28;20481;-75
2022/02/18 12:31:51;;;;;;;6.25;2.95;;;27.00;33.30;;;;;;6195196;28;20492;-75
2022/02/18 12:35:04;;;;;;;8.65;2.40;;;27.10;33.40;;;;;;6198230;28;20084;-76
2022/02/18 12:38:07;;;;;;;9.95;2.17;;;27.00;32.60;;;;;;6212277;28;20092;-74
2022/02/18 12:41:17;;;;;;;6.55;2.20;;;26.90;32.80;;;;;;6205027;28;20294;-74
2022/02/18 12:44:19;;;;;;;7.60;2.25;;;27.10;33.20;;;;;;6233813;28;20044;-75
2022/02/18 12:47:32;;;;;;;8.10;2.42;;;27.50;32.70;;;;;;6220193;28;20033;-75
2022/02/18 12:50:39;;;;;;;6.45;2.40;;;27.80;32.00;;;;;;6234651;28;20100;-76
2022/02/18 12:53:46;;;;;;;4.95;2.28;;;28.00;31.30;;;;;;6220595;28;20064;-74
2022/02/18 12:56:48;;;;;;;6.18;2.28;;;27.60;31.60;;;;;;6203658;28;20113;-75
2022/02/18 12:59:50;;;;;;;6.30;2.72;;;26.90;32.30;;;;;;6204317;28;20109;-75
2022/02/18 13:02:59;;;;;;;7.53;2.75;;;26.20;33.20;;;;;;6217983;28;20041;-75
2022/02/18 13:06:04;;;;;;;9.57;3.25;;;25.60;33.80;;;;;;6204206;28;20339;-74
2022/02/18 13:09:06;;;;;;;7.32;2.67;;;25.00;34.80;;;;;;6220922;28;20040;-74
2022/02/18 13:12:08;;;;;;;9.07;2.72;;;24.50;35.50;;;;;;6199625;28;20114;-74
2022/02/18 13:15:13;;;;;;;11.48;2.47;;;24.10;36.20;;;;;;6213098;28;20447;-74
2022/02/18 13:18:14;;;;;;;8.60;2.85;;;23.80;36.80;;;;;;6202317;28;20082;-73
2022/02/18 13:21:15;;;;;;;7.35;2.85;;;23.50;37.20;;;;;;6196595;28;20406;-73
2022/02/18 13:24:15;;;;;;;5.88;2.60;;;23.20;37.40;;;;;;6212838;28;20038;-75
2022/02/18 13:27:16;;;;;;;6.75;2.63;;;23.00;37.70;;;;;;6196798;28;20057;-74
2022/02/18 13:30:19;;;;;;;7.68;2.17;;;22.70;38.10;;;;;;6198411;28;20092;-73
2022/02/18 13:33:23;;;;;;;4.68;2.17;;;22.50;38.40;;;;;;6226359;28;20052;-74
2022/02/18 13:36:26;;;;;;;3.80;1.88;;;22.20;38.60;;;;;;6207293;28;20467;-76
2022/02/18 13:39:27;;;;;;;13.05;2.38;;;22.10;39.00;;;;;;6211301;28;20462;-71
2022/02/18 13:42:28;;;;;;;10.13;2.55;;;21.90;39.20;;;;;;6216506;28;20049;-73
2022/02/18 13:45:29;;;;;;;6.88;1.88;;;21.80;39.30;;;;;;6220158;28;20044;-71
2022/02/18 13:48:31;;;;;;;5.63;1.95;;;21.80;39.30;;;;;;6192259;28;20058;-73
2022/02/18 13:51:34;;;;;;;6.03;2.05;;;21.70;39.50;;;;;;6203502;28;20489;-74
2022/02/18 13:54:41;;;;;;;9.02;2.03;;;21.60;39.60;;;;;;6217502;28;20030;-74
2022/02/18 13:57:42;;;;;;;5.57;2.03;;;21.60;39.80;;;;;;6200778;28;20031;-74
2022/02/18 14:00:46;;;;;;;10.40;2.20;;;21.50;39.80;;;;;;6206872;28;20042;-74
2022/02/18 14:03:58;;;;;;;2.85;1.50;;;21.30;39.80;;;;;;6220885;28;20037;-74
2022/02/18 14:07:09;;;;;;;3.85;1.35;;;21.30;39.90;;;;;;6211411;28;20038;-75
2022/02/18 14:10:17;;;;;;;3.10;1.30;;;21.30;39.90;;;;;;6199453;28;20038;-74
2022/02/18 14:13:31;;;;;;;4.85;1.30;;;21.10;39.80;;;;;;6220642;28;20045;-73
2022/02/18 14:16:33;;;;;;;4.82;1.20;;;21.10;39.80;;;;;;6197440;28;20058;-72
2022/02/18 14:19:49;;;;;;;3.72;1.40;;;21.00;39.80;;;;;;6216861;28;20384;-73
2022/02/18 14:22:57;;;;;;;7.97;1.17;;;20.90;40.00;;;;;;6205529;28;20497;-71
2022/02/18 14:26:00;;;;;;;2.17;1.10;;;20.90;40.10;;;;;;6207955;28;20117;-72
2022/02/18 14:29:05;;;;;;;3.47;1.38;;;21.00;40.30;;;;;;6215108;28;20066;-72
2022/02/18 14:32:06;;;;;;;5.82;1.63;;;21.10;40.40;;;;;;6200615;28;20046;-72
2022/02/18 14:35:15;;;;;;;9.57;1.45;;;21.10;40.30;;;;;;6209061;28;20045;-72
2022/02/18 14:38:16;;;;;;;7.07;1.30;;;21.00;40.40;;;;;;6211105;28;20084;-73
2022/02/18 14:41:17;;;;;;;4.20;1.42;;;21.00;40.40;;;;;;6193826;28;20030;-72
2022/02/18 14:44:18;;;;;;;4.53;1.08;;;21.00;40.40;;;;;;6213922;28;20049;-72
2022/02/18 14:47:21;;;;;;;4.88;1.05;;;21.00;40.30;;;;;;6206638;28;20125;-72
2022/02/18 14:50:29;;;;;;;3.47;1.20;;;21.00;40.70;;;;;;6208403;28;20026;-73
2022/02/18 14:53:31;;;;;;;8.52;0.98;;;21.00;40.20;;;;;;6202018;28;20807;-72
2022/02/18 14:56:32;;;;;;;7.07;1.10;;;21.00;40.30;;;;;;6218607;28;20030;-73
2022/02/18 14:59:33;;;;;;;3.47;1.20;;;21.00;40.30;;;;;;6211151;28;20370;-72
2022/02/18 15:02:34;;;;;;;8.15;1.35;;;21.00;40.30;;;;;;6212251;28;20107;-72
2022/02/18 15:05:39;;;;;;;4.55;1.23;;;21.00;40.40;;;;;;6204054;28;20035;-73
2022/02/18 15:08:40;;;;;;;8.10;1.30;;;21.10;40.50;;;;;;6199995;28;20042;-72
2022/02/18 15:11:41;;;;;;;2.75;1.20;;;21.00;40.60;;;;;;6209757;28;20450;-72
2022/02/18 15:14:42;;;;;;;5.60;1.30;;;21.10;40.70;;;;;;6211692;28;20030;-72
2022/02/18 15:17:43;;;;;;;4.45;1.50;;;21.10;40.80;;;;;;6212685;28;20498;-72
2022/02/18 15:20:44;;;;;;;1.83;1.40;;;21.10;40.80;;;;;;6211829;28;20057;-72
2022/02/18 15:23:45;;;;;;;6.45;1.40;;;21.20;40.90;;;;;;6235752;28;20057;-72
2022/02/18 15:26:46;;;;;;;3.33;1.23;;;21.30;40.90;;;;;;6214680;28;20061;-72
2022/02/18 15:36:27;;;;;;;6.13;1.42;;;21.50;41.10;;;;;;6211417;28;20049;-72
2022/02/18 15:42:47;;;;;;;4.45;1.38;;;21.60;40.90;;;;;;6203348;28;20034;-71
2022/02/18 15:45:48;;;;;;;2.92;1.38;;;21.70;40.90;;;;;;6208644;28;20340;-71
2022/02/18 15:48:49;;;;;;;5.10;1.63;;;21.80;40.80;;;;;;6200645;28;20041;-72
2022/02/18 15:51:50;;;;;;;6.53;1.88;;;21.90;40.60;;;;;;6209349;28;20390;-73
2022/02/18 15:54:51;;;;;;;8.00;1.50;;;21.90;40.40;;;;;;6212741;28;20034;-71
2022/02/18 15:57:52;;;;;;;4.22;1.50;;;22.00;40.40;;;;;;6209218;28;20034;-73
2022/02/18 16:00:53;;;;;;;7.45;1.60;;;22.00;40.30;;;;;;6212288;28;20044;-71
2022/02/18 16:03:55;;;;;;;5.07;1.48;;;22.00;40.40;;;;;;6206084;28;20056;-72
2022/02/18 16:06:57;;;;;;;10.35;3.13;;;22.00;40.30;;;;;;6199375;28;20034;-72
2022/02/18 16:10:03;;;;;;;6.65;2.15;;;21.90;40.40;;;;;;6212261;28;20046;-72